Time;durP1;ratioP1;P1;durP2;ratioP2;P2;SDS_P1;SDS_P2;PMS_P1;PMS_P2;Temp;Humidity;BMP_temperature;BMP_pressure;BME280_temperature;BME280_humidity;BME280_pressure;Samples;Min_cycle;Max_cycle;Signal;HPM_P1;HPM_P2
2021/08/07 00:00:46;;;;;;;5.60;2.22;;;;;;;13.97;98.36;99068.42;1705681;83;25703;-67
2021/08/07 00:03:15;;;;;;;5.00;2.40;;;;;;;13.99;98.44;99065.34;1705851;84;25828;-67
2021/08/07 00:05:43;;;;;;;8.80;2.80;;;;;;;13.99;98.48;99066.12;1705556;84;25749;-67
2021/08/07 00:08:10;;;;;;;7.22;2.75;;;;;;;14.00;98.44;99072.36;1705279;83;25713;-67
2021/08/07 00:10:36;;;;;;;2.80;2.60;;;;;;;13.99;98.49;99061.27;1705575;84;25746;-67
2021/08/07 00:13:04;;;;;;;2.47;2.10;;;;;;;14.00;98.34;99069.06;1705559;84;25711;-67
2021/08/07 00:15:30;;;;;;;7.58;2.47;;;;;;;14.00;98.40;99073.14;1685034;83;27893;-67
2021/08/07 00:17:57;;;;;;;5.03;2.62;;;;;;;14.02;98.42;99083.66;1705545;83;25690;-68
2021/08/07 00:20:24;;;;;;;4.22;2.37;;;;;;;14.01;98.43;99076.08;1705636;84;25301;-67
2021/08/07 00:22:51;;;;;;;4.40;2.60;;;;;;;14.00;98.43;99081.88;1705517;83;25726;-67
2021/08/07 00:25:18;;;;;;;4.08;2.58;;;;;;;14.00;98.44;99094.11;1705645;83;25741;-67
2021/08/07 00:27:44;;;;;;;5.58;2.77;;;;;;;14.00;98.43;99094.89;1705708;83;27416;-67
2021/08/07 00:30:12;;;;;;;5.50;3.17;;;;;;;14.02;98.72;99089.09;1705350;83;25792;-67
2021/08/07 00:32:39;;;;;;;8.40;4.03;;;;;;;14.00;98.50;99096.83;1684785;84;25783;-67
2021/08/07 00:35:08;;;;;;;4.47;3.27;;;;;;;14.00;98.65;99096.83;1705590;83;25684;-67
2021/08/07 00:37:35;;;;;;;6.05;3.10;;;;;;;14.03;98.65;99100.75;1705624;84;25637;-67
2021/08/07 00:40:03;;;;;;;4.47;3.20;;;;;;;14.03;98.64;99098.02;1705548;83;28221;-67
2021/08/07 00:42:30;;;;;;;3.87;3.37;;;;;;;14.04;98.61;99105.05;1705080;83;25739;-67
2021/08/07 00:44:56;;;;;;;7.90;3.22;;;;;;;14.04;98.53;99109.13;1705549;84;25719;-67
2021/08/07 00:47:23;;;;;;;5.45;3.20;;;;;;;14.04;98.45;99111.27;1705580;83;25872;-67
2021/08/07 00:49:49;;;;;;;3.08;2.75;;;;;;;14.03;98.41;99109.70;1705715;83;25747;-67
2021/08/07 00:52:16;;;;;;;6.28;3.37;;;;;;;14.03;98.37;99117.86;1705785;83;27348;-67
2021/08/07 00:54:43;;;;;;;5.22;3.95;;;;;;;14.04;98.41;99118.06;1705413;84;25986;-67
2021/08/07 00:57:09;;;;;;;4.50;3.45;;;;;;;14.01;98.28;99123.66;1707568;83;25762;-67
2021/08/07 00:59:36;;;;;;;4.53;3.35;;;;;;;14.00;98.15;99119.94;1710383;83;25691;-67
2021/08/07 01:02:12;;;;;;;3.50;3.30;;;;;;;13.98;98.09;99126.31;1710318;83;25760;-67
2021/08/07 01:04:44;;;;;;;4.12;3.83;;;;;;;13.96;98.15;99121.78;1710099;83;27329;-65
2021/08/07 01:07:40;;;;;;;4.47;4.10;;;;;;;13.94;98.14;99127.58;1709666;83;25806;-67
2021/08/07 01:10:33;;;;;;;4.22;3.90;;;;;;;13.94;98.29;99137.67;1688639;83;25730;-67
2021/08/07 01:13:08;;;;;;;4.55;4.25;;;;;;;13.91;98.12;99139.20;1709838;83;25688;-67
2021/08/07 01:15:40;;;;;;;5.00;4.55;;;;;;;13.88;98.06;99134.47;1710638;83;25755;-67
2021/08/07 01:18:12;;;;;;;6.97;5.22;;;;;;;13.88;98.26;99138.55;1710268;83;27563;-67
2021/08/07 01:20:52;;;;;;;5.90;5.40;;;;;;;13.87;98.24;99155.21;1710419;83;25664;-67
2021/08/07 01:23:25;;;;;;;;;;;;;;;13.85;98.34;99146.64;1710867;83;25697;-67
2021/08/07 01:26:02;;;;;;;6.85;5.70;;;;;;;13.85;98.43;99147.41;1710577;83;25719;-67
2021/08/07 01:28:34;;;;;;;9.80;7.10;;;;;;;13.85;98.41;99141.20;1686784;83;25790;-67
2021/08/07 01:31:04;;;;;;;7.33;6.65;;;;;;;13.83;98.44;99146.99;1710595;83;28104;-67
2021/08/07 01:33:32;;;;;;;7.40;6.78;;;;;;;13.83;98.34;99155.15;1710561;83;25714;-67
2021/08/07 01:36:02;;;;;;;8.45;7.58;;;;;;;13.82;98.66;99158.45;1710425;83;26363;-67
2021/08/07 01:38:30;;;;;;;10.40;7.53;;;;;;;13.79;98.17;99165.95;1710394;83;25845;-67
2021/08/07 01:40:56;;;;;;;11.25;7.28;;;;;;;13.78;98.19;99161.65;1710487;83;25703;-67
2021/08/07 01:43:23;;;;;;;7.15;6.47;;;;;;;13.76;98.08;99161.80;1709438;83;27322;-67
2021/08/07 01:45:50;;;;;;;6.40;5.85;;;;;;;13.76;98.06;99171.31;1710483;83;26482;-67
2021/08/07 01:48:40;;;;;;;5.87;4.92;;;;;;;13.73;97.97;99173.38;1710061;83;25735;-67
2021/08/07 01:51:24;;;;;;;7.08;5.17;;;;;;;13.73;97.97;99170.66;1710575;83;25835;-66
2021/08/07 01:53:54;;;;;;;6.35;4.53;;;;;;;13.69;97.73;99162.45;1710024;83;25636;-67
2021/08/07 01:56:30;;;;;;;8.25;4.70;;;;;;;13.67;97.54;99172.08;1710508;83;27409;-67
2021/08/07 01:59:10;;;;;;;5.10;4.40;;;;;;;13.63;97.48;99171.43;1710286;83;25955;-67
2021/08/07 02:01:37;;;;;;;7.42;4.22;;;;;;;13.59;97.31;99166.51;1710356;83;25729;-67
2021/08/07 02:04:06;;;;;;;6.67;4.42;;;;;;;13.59;97.38;99183.39;1687170;83;25674;-66
2021/08/07 02:06:34;;;;;;;5.90;3.95;;;;;;;13.58;97.40;99179.87;1710195;83;25744;-67
2021/08/07 02:09:02;;;;;;;5.10;3.90;;;;;;;13.58;97.46;99175.02;1687831;83;28038;-67
2021/08/07 02:11:29;;;;;;;6.12;3.67;;;;;;;13.54;97.14;99179.02;1710174;83;26410;-67
2021/08/07 02:13:57;;;;;;;4.85;3.65;;;;;;;13.52;97.16;99184.02;1709857;83;25757;-67
2021/08/07 02:16:23;;;;;;;9.55;4.28;;;;;;;13.51;97.09;99189.23;1710396;83;26287;-67
2021/08/07 02:18:52;;;;;;;5.35;4.00;;;;;;;13.51;97.07;99190.59;1710626;83;25658;-67
2021/08/07 02:21:20;;;;;;;5.72;3.83;;;;;;;13.49;97.00;99193.45;1710601;83;27410;-66
2021/08/07 02:23:49;;;;;;;5.50;3.85;;;;;;;13.48;96.92;99198.08;1710504;83;25744;-67
2021/08/07 02:26:17;;;;;;;;;;;;;;;13.47;96.94;99194.36;1713053;83;26359;-67
2021/08/07 02:28:44;;;;;;;7.50;3.60;;;;;;;13.48;97.13;99198.66;1710331;83;26271;-66
2021/08/07 02:31:11;;;;;;;6.60;4.28;;;;;;;13.45;96.98;99193.38;1686046;83;25717;-66
2021/08/07 02:33:42;;;;;;;5.72;3.58;;;;;;;13.44;97.02;99195.29;1686946;83;28563;-66
2021/08/07 02:36:12;;;;;;;7.00;3.95;;;;;;;13.44;97.08;99202.08;1710074;83;25961;-67
2021/08/07 02:38:41;;;;;;;8.25;4.53;;;;;;;13.44;97.15;99208.87;1710529;83;25741;-67
2021/08/07 02:41:10;;;;;;;5.87;3.52;;;;;;;13.45;97.14;99211.81;1710488;83;25721;-67
2021/08/07 02:43:37;;;;;;;8.45;4.05;;;;;;;13.45;96.97;99216.47;1710190;83;25726;-67
2021/08/07 02:46:04;;;;;;;5.87;3.95;;;;;;;13.44;96.97;99217.60;1710601;83;27339;-67
2021/08/07 02:48:33;;;;;;;7.33;4.12;;;;;;;13.44;96.99;99223.03;1686178;83;25769;-67
2021/08/07 02:51:00;;;;;;;7.12;4.15;;;;;;;13.43;97.00;99220.09;1710723;83;30266;-67
2021/08/07 02:53:27;;;;;;;7.22;4.08;;;;;;;13.43;96.94;99218.73;1710511;83;25735;-67
2021/08/07 02:55:54;;;;;;;7.58;4.12;;;;;;;13.42;96.95;99226.10;1710514;83;25753;-67
2021/08/07 02:58:22;;;;;;;4.83;4.15;;;;;;;13.43;96.94;99221.45;1710494;83;27594;-66
2021/08/07 03:00:49;;;;;;;8.63;4.30;;;;;;;13.42;96.84;99230.75;1709632;83;25832;-66
2021/08/07 03:03:15;;;;;;;6.12;4.70;;;;;;;13.41;96.87;99227.81;1686033;83;25756;-66
2021/08/07 03:05:42;;;;;;;7.97;4.33;;;;;;;13.41;96.79;99230.52;1710145;83;25775;-66
2021/08/07 03:08:10;;;;;;;7.22;4.20;;;;;;;13.40;96.84;99232.46;1710474;83;26139;-66
2021/08/07 03:10:38;;;;;;;6.80;4.15;;;;;;;13.40;96.79;99237.09;1710509;83;28041;-67
2021/08/07 03:13:05;;;;;;;5.25;3.98;;;;;;;13.39;96.73;99236.89;1709169;83;25859;-67
2021/08/07 03:15:31;;;;;;;5.75;4.45;;;;;;;13.36;96.74;99235.66;1710392;83;25839;-67
2021/08/07 03:17:58;;;;;;;6.12;4.10;;;;;;;13.38;96.84;99248.33;1710324;83;26375;-67
2021/08/07 03:20:30;;;;;;;6.20;4.50;;;;;;;13.37;96.82;99253.53;1710276;83;25700;-67
2021/08/07 03:22:52;;;;;;;6.97;4.00;;;;;;;13.38;96.68;99248.88;1710062;83;27573;-67
2021/08/07 03:25:19;;;;;;;4.22;3.83;;;;;;;13.37;96.68;99254.11;1709843;83;25784;-67
2021/08/07 03:27:45;;;;;;;7.42;3.87;;;;;;;13.36;96.70;99251.17;1710573;83;25787;-67
2021/08/07 03:30:12;;;;;;;6.00;4.00;;;;;;;13.34;96.55;99242.59;1710159;83;25756;-67
2021/08/07 03:32:38;;;;;;;4.55;3.50;;;;;;;13.32;96.55;99248.38;1710471;83;25746;-67
2021/08/07 03:35:06;;;;;;;4.50;3.77;;;;;;;13.32;96.47;99242.94;1686065;83;27491;-67
2021/08/07 03:37:32;;;;;;;7.28;3.65;;;;;;;13.33;96.48;99250.51;1687422;83;25801;-67
2021/08/07 03:39:59;;;;;;;8.68;4.70;;;;;;;13.33;96.48;99247.80;1710461;83;25743;-67
2021/08/07 03:42:25;;;;;;;5.78;4.10;;;;;;;13.34;96.58;99245.30;1710452;83;26315;-67
2021/08/07 03:44:52;;;;;;;7.40;4.05;;;;;;;13.34;96.49;99258.88;1710116;83;25766;-67
2021/08/07 03:47:18;;;;;;;5.80;3.70;;;;;;;13.37;96.55;99262.26;1710639;83;28033;-67
2021/08/07 03:49:44;;;;;;;10.10;3.95;;;;;;;13.36;96.54;99259.31;1710444;83;25874;-67
2021/08/07 03:52:11;;;;;;;5.85;4.10;;;;;;;13.37;96.50;99269.05;1710371;83;25704;-67
2021/08/07 03:54:37;;;;;;;9.35;4.40;;;;;;;13.37;96.52;99270.41;1710425;83;26434;-67
2021/08/07 03:57:04;;;;;;;4.05;3.75;;;;;;;13.39;96.66;99266.77;1709451;83;25722;-67
2021/08/07 03:59:30;;;;;;;5.30;3.90;;;;;;;13.41;96.79;99276.13;1684645;84;27417;-67
2021/08/07 04:01:56;;;;;;;6.53;4.00;;;;;;;13.43;96.80;99267.08;1685105;84;25772;-67
2021/08/07 04:04:23;;;;;;;13.40;4.83;;;;;;;13.48;96.86;99279.58;1685887;83;26063;-67
2021/08/07 04:06:49;;;;;;;4.95;4.12;;;;;;;13.50;96.71;99272.43;1710709;83;25764;-67
2021/08/07 04:09:16;;;;;;;5.95;4.42;;;;;;;13.52;96.54;99283.73;1710795;83;25697;-67
2021/08/07 04:11:42;;;;;;;9.90;4.25;;;;;;;13.55;96.79;99287.10;1710645;83;27401;-67
2021/08/07 04:14:08;;;;;;;7.90;4.17;;;;;;;13.58;96.91;99280.97;1710317;83;25720;-67
2021/08/07 04:16:36;;;;;;;6.05;3.75;;;;;;;13.60;96.64;99278.13;1710435;83;25783;-67
2021/08/07 04:19:03;;;;;;;6.72;4.37;;;;;;;13.63;96.74;99281.47;1710471;83;26233;-67
2021/08/07 04:21:29;;;;;;;5.53;3.95;;;;;;;13.64;96.56;99282.28;1710389;83;25712;-67
2021/08/07 04:23:56;;;;;;;8.50;4.60;;;;;;;13.67;96.66;99288.34;1710143;83;27431;-67
2021/08/07 04:26:22;;;;;;;5.90;4.20;;;;;;;13.69;96.57;99286.63;1710349;83;25875;-67
2021/08/07 04:28:49;;;;;;;5.83;4.17;;;;;;;13.72;96.44;99290.78;1710413;83;25686;-67
2021/08/07 04:31:15;;;;;;;6.50;4.20;;;;;;;13.76;96.65;99288.95;1710378;83;25781;-67
2021/08/07 04:33:41;;;;;;;7.33;4.17;;;;;;;13.80;96.62;99291.75;1710432;83;25656;-67
2021/08/07 04:36:07;;;;;;;4.33;3.90;;;;;;;13.83;96.59;99291.04;1710400;83;27411;-67
2021/08/07 04:38:34;;;;;;;8.35;4.80;;;;;;;13.86;96.36;99294.41;1710379;83;25718;-67
2021/08/07 04:41:00;;;;;;;5.60;4.50;;;;;;;13.91;96.62;99293.33;1710360;83;25878;-67
2021/08/07 04:43:27;;;;;;;6.55;4.08;;;;;;;13.94;96.49;99294.77;1710319;83;25790;-67
2021/08/07 04:45:54;;;;;;;5.53;3.87;;;;;;;13.97;96.45;99302.80;1710413;83;25689;-67
2021/08/07 04:48:20;;;;;;;5.22;4.30;;;;;;;13.99;96.09;99304.58;1710376;83;27384;-67
2021/08/07 04:50:47;;;;;;;4.90;4.22;;;;;;;14.03;96.30;99304.09;1710273;83;25622;-67
2021/08/07 04:53:14;;;;;;;5.03;4.30;;;;;;;14.07;96.42;99301.45;1710373;83;25699;-67
2021/08/07 04:55:41;;;;;;;5.45;4.30;;;;;;;14.12;96.38;99304.67;1686352;84;25842;-67
2021/08/07 04:58:07;;;;;;;9.88;4.65;;;;;;;14.16;96.33;99302.02;1709689;83;25723;-67
2021/08/07 05:00:34;;;;;;;6.50;4.20;;;;;;;14.18;95.88;99307.33;1710419;83;27359;-67
2021/08/07 05:03:00;;;;;;;7.12;4.30;;;;;;;14.20;96.00;99306.40;1710253;83;25747;-67
2021/08/07 05:05:27;;;;;;;4.62;3.70;;;;;;;14.24;95.84;99299.67;1693922;83;29762;-67
2021/08/07 05:07:53;;;;;;;6.72;4.17;;;;;;;14.30;95.95;99305.59;1709143;83;25715;-67
2021/08/07 05:10:20;;;;;;;4.72;4.17;;;;;;;14.36;96.14;99312.34;1710460;83;25743;-67
2021/08/07 05:12:46;;;;;;;7.80;3.87;;;;;;;14.47;97.03;99304.38;1710168;83;28139;-67
2021/08/07 05:15:13;;;;;;;7.70;3.35;;;;;;;14.49;96.21;99302.89;1686324;83;25967;-68
2021/08/07 05:17:42;;;;;;;5.60;3.30;;;;;;;14.58;95.96;99308.11;1710416;83;25830;-68
2021/08/07 05:20:10;;;;;;;5.65;3.65;;;;;;;14.60;95.11;99307.20;1710518;83;25755;-68
2021/08/07 05:22:37;;;;;;;5.33;3.15;;;;;;;14.65;95.19;99316.42;1710421;83;25664;-68
2021/08/07 05:25:06;;;;;;;7.65;3.30;;;;;;;14.69;94.89;99324.66;1710310;83;27336;-67
2021/08/07 05:27:33;;;;;;;4.85;3.58;;;;;;;14.75;95.47;99316.42;1710449;83;25734;-67
2021/08/07 05:29:59;;;;;;;8.50;4.00;;;;;;;14.83;95.54;99317.33;1710388;83;25766;-68
2021/08/07 05:32:26;;;;;;;6.97;3.67;;;;;;;14.86;94.90;99318.75;1710185;83;27776;-68
2021/08/07 05:34:52;;;;;;;6.53;4.58;;;;;;;14.89;94.71;99324.84;1710437;83;25654;-68
2021/08/07 05:37:19;;;;;;;6.30;3.90;;;;;;;14.92;94.38;99319.27;1710429;83;28146;-68
2021/08/07 05:39:45;;;;;;;4.65;3.33;;;;;;;14.94;94.59;99317.73;1708361;83;25766;-68
2021/08/07 05:42:11;;;;;;;6.28;3.30;;;;;;;14.95;94.08;99315.82;1700145;83;25742;-68
2021/08/07 05:44:38;;;;;;;10.08;3.83;;;;;;;14.98;93.80;99329.27;1710453;83;26648;-68
2021/08/07 05:47:04;;;;;;;8.05;4.20;;;;;;;14.97;93.69;99333.16;1710453;83;25773;-68
2021/08/07 05:49:31;;;;;;;4.22;3.67;;;;;;;14.95;93.17;99332.16;1687025;83;27416;-68
2021/08/07 05:51:57;;;;;;;6.22;3.47;;;;;;;14.98;93.65;99337.44;1710110;83;25696;-68
2021/08/07 05:54:24;;;;;;;6.95;4.62;;;;;;;15.01;93.65;99339.45;1710352;83;25704;-67
2021/08/07 05:56:50;;;;;;;7.40;3.67;;;;;;;15.08;93.92;99347.15;1710538;83;25694;-68
2021/08/07 05:59:16;;;;;;;6.28;4.12;;;;;;;15.23;94.07;99345.47;1708801;83;25817;-68
2021/08/07 06:01:43;;;;;;;6.80;3.40;;;;;;;15.36;93.88;99346.09;1710300;83;27331;-68
2021/08/07 06:04:09;;;;;;;12.98;4.28;;;;;;;15.48;93.07;99349.20;1688609;84;25694;-68
2021/08/07 06:06:35;;;;;;;5.95;3.70;;;;;;;15.64;93.75;99343.59;1705610;84;25678;-68
2021/08/07 06:09:02;;;;;;;5.80;3.55;;;;;;;15.79;93.50;99342.69;1706197;83;26033;-68
2021/08/07 06:11:28;;;;;;;8.73;3.47;;;;;;;15.94;93.17;99336.88;1709939;83;25784;-68
2021/08/07 06:13:55;;;;;;;4.08;2.85;;;;;;;16.09;93.00;99342.51;1710351;83;27335;-68
2021/08/07 06:16:22;;;;;;;4.62;2.85;;;;;;;16.20;92.03;99346.17;1710410;83;25858;-68
2021/08/07 06:18:48;;;;;;;4.75;3.10;;;;;;;16.29;91.60;99344.53;1710210;83;25631;-68
2021/08/07 06:21:15;;;;;;;9.15;3.33;;;;;;;16.40;91.47;99351.70;1710562;83;25755;-68
2021/08/07 06:23:41;;;;;;;7.55;3.02;;;;;;;16.53;92.10;99346.80;1710509;83;25706;-68
2021/08/07 06:26:09;;;;;;;4.45;3.08;;;;;;;16.70;91.89;99352.81;1710534;83;28032;-68
2021/08/07 06:28:38;;;;;;;3.80;3.27;;;;;;;16.81;91.67;99355.09;1710019;83;25728;-68
2021/08/07 06:31:06;;;;;;;4.87;2.42;;;;;;;16.93;91.68;99356.81;1710606;83;25757;-68
2021/08/07 06:33:33;;;;;;;9.23;2.98;;;;;;;17.06;90.08;99357.31;1686355;83;25777;-68
2021/08/07 06:36:00;;;;;;;2.85;2.55;;;;;;;17.17;90.33;99360.36;1710680;83;25798;-68
2021/08/07 06:38:27;;;;;;;4.90;2.50;;;;;;;17.36;90.29;99367.55;1710447;83;28027;-68
2021/08/07 06:40:54;;;;;;;6.53;2.58;;;;;;;17.47;88.19;99369.59;1710078;83;25739;-69
2021/08/07 06:43:20;;;;;;;3.70;2.25;;;;;;;17.55;87.54;99369.86;1710143;83;25924;-69
2021/08/07 06:45:48;;;;;;;3.77;2.55;;;;;;;17.70;87.47;99370.17;1710366;83;26278;-69
2021/08/07 06:48:16;;;;;;;4.75;1.95;;;;;;;17.84;86.58;99370.88;1710245;83;25702;-69
2021/08/07 06:50:42;;;;;;;5.03;2.17;;;;;;;17.99;86.48;99369.03;1710215;83;27460;-69
2021/08/07 06:53:09;;;;;;;3.55;1.90;;;;;;;18.17;85.33;99369.74;1686587;83;25792;-69
2021/08/07 06:55:35;;;;;;;3.05;1.65;;;;;;;18.31;84.44;99375.28;1710357;83;25759;-69
2021/08/07 06:58:02;;;;;;;4.42;2.22;;;;;;;18.46;84.86;99377.50;1710328;83;25836;-69
2021/08/07 07:00:28;;;;;;;2.52;1.60;;;;;;;18.61;83.29;99377.77;1708980;83;26470;-69
2021/08/07 07:02:54;;;;;;;4.50;1.60;;;;;;;18.74;80.78;99376.04;1705688;83;27417;-69
2021/08/07 07:05:21;;;;;;;3.90;1.82;;;;;;;18.80;80.41;99382.13;1705851;84;25680;-68
2021/08/07 07:07:48;;;;;;;3.58;1.90;;;;;;;18.92;80.77;99379.64;1705898;84;25716;-69
2021/08/07 07:10:15;;;;;;;1.92;1.60;;;;;;;19.16;81.35;99378.72;1705844;84;25731;-69
2021/08/07 07:12:42;;;;;;;3.58;1.92;;;;;;;19.43;82.35;99381.88;1705902;83;25722;-69
2021/08/07 07:15:09;;;;;;;2.75;1.70;;;;;;;19.67;81.43;99380.31;1705855;84;27509;-69
2021/08/07 07:17:36;;;;;;;5.60;2.10;;;;;;;19.93;81.29;99379.12;1684218;84;25710;-68
2021/08/07 07:20:05;;;;;;;4.47;2.10;;;;;;;20.24;80.52;99378.67;1705851;83;25787;-68
2021/08/07 07:22:32;;;;;;;;;;;;;;;20.45;80.41;99375.87;1708366;84;26369;-68
2021/08/07 07:24:58;;;;;;;3.17;1.70;;;;;;;20.70;79.14;99373.05;1705847;84;25734;-69
2021/08/07 07:27:25;;;;;;;5.92;1.60;;;;;;;20.86;78.23;99383.56;1705877;83;27304;-69
2021/08/07 07:29:51;;;;;;;4.17;1.70;;;;;;;21.05;77.05;99383.64;1705828;83;25757;-69
2021/08/07 07:32:17;;;;;;;2.98;1.72;;;;;;;21.26;76.43;99384.09;1705860;84;25802;-69
2021/08/07 07:34:44;;;;;;;10.35;2.15;;;;;;;21.53;76.43;99374.51;1705788;84;25743;-69
2021/08/07 07:37:10;;;;;;;3.33;1.62;;;;;;;21.79;75.74;99371.71;1684194;84;25786;-69
2021/08/07 07:39:37;;;;;;;2.60;1.75;;;;;;;21.99;74.04;99375.45;1705803;84;27581;-69
2021/08/07 07:42:04;;;;;;;2.77;1.50;;;;;;;22.19;73.23;99374.27;1705792;83;25698;-69
2021/08/07 07:44:30;;;;;;;4.83;1.67;;;;;;;22.29;69.73;99379.50;1705887;84;26396;-69
2021/08/07 07:46:57;;;;;;;2.42;1.40;;;;;;;22.30;70.33;99383.03;1705761;83;25621;-69
2021/08/07 07:49:23;;;;;;;4.12;1.80;;;;;;;22.51;70.82;99384.16;1705895;84;25856;-69
2021/08/07 07:51:49;;;;;;;4.65;1.77;;;;;;;22.81;70.55;99392.84;1684167;84;26674;-69
2021/08/07 07:54:16;;;;;;;4.08;1.50;;;;;;;22.90;67.93;99391.15;1705715;84;25838;-69
2021/08/07 07:56:43;;;;;;;7.72;1.82;;;;;;;22.94;67.33;99387.73;1705846;84;25749;-69
2021/08/07 07:59:10;;;;;;;2.75;1.70;;;;;;;22.97;66.93;99396.37;1704045;84;26531;-69
2021/08/07 08:01:36;;;;;;;4.67;1.50;;;;;;;22.94;65.43;99391.09;1703291;84;25762;-69
2021/08/07 08:04:02;;;;;;;3.67;1.77;;;;;;;23.06;64.55;99397.45;1703291;84;27353;-69
2021/08/07 08:06:29;;;;;;;2.90;1.37;;;;;;;23.07;63.61;99401.78;1704186;83;25689;-69
2021/08/07 08:08:57;;;;;;;1.92;1.62;;;;;;;23.12;65.03;99399.94;1710369;83;25789;-69
2021/08/07 08:11:23;;;;;;;3.62;1.65;;;;;;;23.41;65.16;99403.64;1710333;83;26348;-70
2021/08/07 08:13:49;;;;;;;5.65;1.60;;;;;;;23.48;61.83;99411.80;1710439;83;26342;-69
2021/08/07 08:16:15;;;;;;;4.53;2.72;;;;;;;23.47;62.78;99407.47;1710367;83;27397;-70
2021/08/07 08:18:42;;;;;;;6.42;1.92;;;;;;;23.64;62.83;99407.01;1710039;83;25690;-70
2021/08/07 08:21:09;;;;;;;3.85;1.72;;;;;;;23.78;62.01;99410.73;1710413;83;25838;-69
2021/08/07 08:23:35;;;;;;;5.33;1.80;;;;;;;23.96;61.64;99411.85;1710324;83;26328;-70
2021/08/07 08:26:02;;;;;;;6.72;2.77;;;;;;;23.99;60.12;99416.51;1710423;83;25661;-70
2021/08/07 08:28:29;;;;;;;2.52;1.57;;;;;;;24.12;61.15;99417.45;1710374;83;27419;-70
2021/08/07 08:30:55;;;;;;;6.00;1.67;;;;;;;24.20;59.76;99413.36;1710305;83;25884;-70
2021/08/07 08:33:22;;;;;;;6.87;1.80;;;;;;;24.17;55.49;99412.05;1710386;83;25881;-71
2021/08/07 08:35:49;;;;;;;4.17;1.82;;;;;;;24.09;56.77;99405.09;1710361;83;26342;-71
2021/08/07 08:38:15;;;;;;;2.42;1.40;;;;;;;24.31;59.34;99413.16;1710460;83;25658;-71
2021/08/07 08:40:42;;;;;;;3.08;2.12;;;;;;;24.47;56.64;99416.61;1710405;83;28373;-71
2021/08/07 08:43:08;;;;;;;2.65;1.92;;;;;;;24.55;55.90;99418.65;1709985;83;25781;-71
2021/08/07 08:45:35;;;;;;;3.65;1.85;;;;;;;24.66;55.63;99421.98;1710387;83;25718;-71
2021/08/07 08:48:03;;;;;;;4.37;2.00;;;;;;;24.79;56.83;99417.95;1710351;83;25793;-71
2021/08/07 08:50:31;;;;;;;2.50;1.80;;;;;;;24.94;54.95;99419.81;1685108;84;25797;-72
2021/08/07 08:52:59;;;;;;;4.10;2.15;;;;;;;25.08;56.31;99427.02;1705531;83;27374;-72
2021/08/07 08:55:26;;;;;;;2.97;1.70;;;;;;;25.30;54.22;99432.30;1707743;83;25686;-72
2021/08/07 08:57:53;;;;;;;3.08;2.02;;;;;;;25.34;55.40;99426.67;1710385;83;25746;-73
2021/08/07 09:00:20;;;;;;;4.33;1.87;;;;;;;25.48;55.00;99438.02;1705471;83;25686;-72
2021/08/07 09:02:46;;;;;;;4.05;1.75;;;;;;;25.69;55.25;99436.13;1705543;83;25787;-72
2021/08/07 09:05:14;;;;;;;3.12;1.85;;;;;;;25.71;52.60;99435.08;1706028;83;27339;-73
2021/08/07 09:07:44;;;;;;;5.37;1.90;;;;;;;25.71;52.25;99442.00;1705467;83;25745;-73
2021/08/07 09:10:11;;;;;;;10.78;2.20;;;;;;;25.81;53.54;99438.80;1705539;84;25710;-74
2021/08/07 09:12:45;;;;;;;2.42;2.17;;;;;;;25.97;49.98;99442.80;1705440;83;25829;-72
2021/08/07 09:15:37;;;;;;;5.87;1.85;;;;;;;25.86;51.88;99446.59;1705314;83;25665;-72
2021/08/07 09:18:17;;;;;;;2.90;1.77;;;;;;;26.02;51.58;99447.20;1705070;84;27369;-73
2021/08/07 09:20:48;;;;;;;2.55;2.02;;;;;;;25.91;51.22;99449.42;1705384;83;25777;-73
2021/08/07 09:23:18;;;;;;;4.30;1.98;;;;;;;25.97;51.63;99449.11;1705539;83;25782;-73
2021/08/07 09:25:45;;;;;;;6.03;2.05;;;;;;;26.23;50.37;99446.46;1703885;83;26297;-73
2021/08/07 09:28:15;;;;;;;5.75;2.25;;;;;;;26.10;49.83;99442.23;1705308;83;25780;-74
2021/08/07 09:30:42;;;;;;;;;;;;;;;26.14;50.24;99444.94;1687082;83;27424;-74
2021/08/07 09:33:13;;;;;;;3.92;2.40;;;;;;;26.16;50.93;99441.12;1705553;83;26017;-73
2021/08/07 09:35:43;;;;;;;6.55;3.92;;;;;;;26.60;51.85;99444.28;1704672;83;25770;-73
2021/08/07 09:38:24;;;;;;;3.30;2.10;;;;;;;26.96;51.85;99444.66;1705717;83;26435;-73
2021/08/07 09:40:58;;;;;;;2.45;1.95;;;;;;;27.28;50.76;99443.70;1705319;84;26419;-73
2021/08/07 09:43:35;;;;;;;5.62;2.60;;;;;;;27.44;49.04;99447.59;1706224;83;28285;-73
2021/08/07 09:46:24;;;;;;;2.50;2.20;;;;;;;27.45;49.16;99449.12;1705607;83;25881;-74
2021/08/07 09:48:53;;;;;;;;;;;;;;;27.58;49.00;99449.91;1708202;83;26118;-74
2021/08/07 09:51:36;;;;;;;6.25;2.08;;;;;;;28.00;48.02;99456.69;1705671;83;25817;-74
2021/08/07 09:54:18;;;;;;;4.08;2.25;;;;;;;27.88;47.13;99441.57;1705416;83;25709;-74
2021/08/07 09:56:54;;;;;;;5.37;2.10;;;;;;;28.02;48.32;99454.86;1705738;83;28040;-74
2021/08/07 09:59:25;;;;;;;3.15;2.12;;;;;;;28.15;47.62;99445.87;1707805;83;25698;-75
2021/08/07 10:01:54;;;;;;;2.20;1.90;;;;;;;28.07;43.87;99454.28;1681447;83;25827;-75
2021/08/07 10:04:22;;;;;;;2.62;2.35;;;;;;;27.71;43.33;99458.23;1706074;83;25770;-75
2021/08/07 10:06:50;;;;;;;3.37;2.08;;;;;;;27.50;43.46;99461.86;1706005;84;25630;-75
2021/08/07 10:09:33;;;;;;;8.43;1.80;;;;;;;27.40;44.09;99460.20;1705999;84;27436;-76
2021/08/07 10:12:03;;;;;;;5.87;2.47;;;;;;;27.35;43.05;99469.86;1705585;83;25722;-75
2021/08/07 10:14:30;;;;;;;4.85;2.30;;;;;;;27.27;44.51;99469.10;1705940;83;25666;-75
2021/08/07 10:16:59;;;;;;;5.97;2.80;;;;;;;27.54;46.03;99479.18;1705849;84;25707;-76
2021/08/07 10:19:26;;;;;;;2.17;1.98;;;;;;;27.55;45.53;99468.25;1706107;84;25774;-76
2021/08/07 10:21:53;;;;;;;7.22;2.33;;;;;;;27.95;47.28;99471.92;1705977;83;27401;-75
2021/08/07 10:24:20;;;;;;;2.95;2.20;;;;;;;28.40;46.61;99472.00;1705776;83;25697;-76
2021/08/07 10:26:48;;;;;;;3.05;2.40;;;;;;;28.67;43.58;99473.66;1705940;84;25694;-76
2021/08/07 10:29:18;;;;;;;4.37;2.27;;;;;;;28.46;43.22;99468.82;1705998;84;25857;-76
2021/08/07 10:31:45;;;;;;;4.47;2.60;;;;;;;28.52;43.40;99476.76;1705931;84;26408;-76
2021/08/07 10:34:14;;;;;;;4.50;2.37;;;;;;;28.58;44.11;99461.67;1705907;83;27383;-76
2021/08/07 10:36:40;;;;;;;3.58;2.20;;;;;;;28.67;42.06;99472.26;1684455;84;25761;-76
2021/08/07 10:39:08;;;;;;;4.42;2.40;;;;;;;28.65;43.94;99475.31;1705975;83;25920;-76
2021/08/07 10:41:35;;;;;;;5.03;2.33;;;;;;;28.69;43.30;99466.25;1705865;83;25702;-75
2021/08/07 10:44:05;;;;;;;2.17;1.95;;;;;;;28.74;41.46;99474.00;1705908;83;25757;-76
2021/08/07 10:46:32;;;;;;;2.55;2.15;;;;;;;28.52;42.04;99475.37;1705911;84;27498;-76
2021/08/07 10:48:58;;;;;;;5.17;2.35;;;;;;;28.48;42.49;99470.53;1705865;84;25692;-77
2021/08/07 10:51:29;;;;;;;4.15;2.35;;;;;;;28.71;42.12;99466.56;1705875;84;25694;-77
2021/08/07 10:54:16;;;;;;;8.35;2.17;;;;;;;28.87;43.32;99477.47;1705895;83;25854;-77
2021/08/07 10:56:43;;;;;;;3.42;2.27;;;;;;;29.05;41.21;99476.04;1684487;84;25658;-77
2021/08/07 10:59:16;;;;;;;6.22;3.00;;;;;;;28.98;42.41;99484.04;1705236;83;27388;-76
2021/08/07 11:01:56;;;;;;;2.50;2.15;;;;;;;29.10;42.76;99469.88;1703312;84;25734;-77
2021/08/07 11:04:27;;;;;;;3.70;2.30;;;;;;;29.41;42.65;99481.02;1702952;84;25634;-76
2021/08/07 11:06:58;;;;;;;3.20;2.40;;;;;;;29.60;42.04;99471.34;1686146;83;25744;-77
2021/08/07 11:09:39;;;;;;;3.12;2.83;;;;;;;29.69;43.08;99470.58;1709755;83;25681;-77
2021/08/07 11:12:16;;;;;;;6.03;3.92;;;;;;;29.96;43.79;99471.28;1710505;83;27369;-77
2021/08/07 11:14:56;;;;;;;4.60;2.95;;;;;;;30.02;42.69;99468.66;1687506;83;25975;-77
2021/08/07 11:17:26;;;;;;;2.70;2.50;;;;;;;29.78;41.63;99461.66;1710763;83;26276;-77
2021/08/07 11:20:11;;;;;;;2.75;2.50;;;;;;;30.08;42.03;99463.39;1710472;83;26201;-76
2021/08/07 11:22:44;;;;;;;6.35;2.52;;;;;;;29.73;41.06;99465.03;1710515;83;25649;-76
2021/08/07 11:25:21;;;;;;;4.33;2.90;;;;;;;29.37;39.62;99472.64;1710362;83;26881;-76
2021/08/07 11:27:55;;;;;;;6.33;3.40;;;;;;;28.90;41.11;99484.77;1710010;83;25709;-76
2021/08/07 11:30:39;;;;;;;3.25;2.83;;;;;;;28.76;42.84;99481.28;1710194;83;25701;-76
2021/08/07 11:33:14;;;;;;;3.60;2.55;;;;;;;28.94;42.88;99479.83;1709992;83;26330;-77
2021/08/07 11:35:46;;;;;;;3.60;2.60;;;;;;;29.25;43.13;99481.25;1710550;83;25679;-77
2021/08/07 11:38:14;;;;;;;2.80;2.60;;;;;;;29.25;42.82;99482.64;1710602;83;27344;-77
2021/08/07 11:40:46;;;;;;;6.87;2.62;;;;;;;29.12;42.99;99481.95;1710628;83;25769;-78